sensor_id;sensor_type;location;lat;lon;timestamp;pressure;altitude;pressure_sealevel;temperature
8362;BMP180;4218;48.326;14.304;2022-10-31T00:00:28;98878.00;;;10.10
8362;BMP180;4218;48.326;14.304;2022-10-31T00:02:54;98868.00;;;10.10
8362;BMP180;4218;48.326;14.304;2022-10-31T00:05:19;98875.00;;;10.20
8362;BMP180;4218;48.326;14.304;2022-10-31T00:07:44;98853.00;;;10.20
8362;BMP180;4218;48.326;14.304;2022-10-31T00:10:10;98865.00;;;10.20
8362;BMP180;4218;48.326;14.304;2022-10-31T00:12:35;98882.00;;;10.20
8362;BMP180;4218;48.326;14.304;2022-10-31T00:15:00;98870.00;;;10.20
8362;BMP180;4218;48.326;14.304;2022-10-31T00:17:26;98882.00;;;10.20
8362;BMP180;4218;48.326;14.304;2022-10-31T00:19:51;98886.00;;;10.10
8362;BMP180;4218;48.326;14.304;2022-10-31T00:22:16;98890.00;;;10.20
8362;BMP180;4218;48.326;14.304;2022-10-31T00:24:42;98888.00;;;10.20
8362;BMP180;4218;48.326;14.304;2022-10-31T00:27:07;98887.00;;;10.20
8362;BMP180;4218;48.326;14.304;2022-10-31T00:29:32;98888.00;;;10.10
8362;BMP180;4218;48.326;14.304;2022-10-31T00:31:58;98882.00;;;10.10
8362;BMP180;4218;48.326;14.304;2022-10-31T00:34:23;98889.00;;;10.20
8362;BMP180;4218;48.326;14.304;2022-10-31T00:36:49;98892.00;;;10.20
8362;BMP180;4218;48.326;14.304;2022-10-31T00:39:14;98897.00;;;10.10
8362;BMP180;4218;48.326;14.304;2022-10-31T00:41:39;98882.00;;;10.20
8362;BMP180;4218;48.326;14.304;2022-10-31T00:44:05;98889.00;;;10.10
8362;BMP180;4218;48.326;14.304;2022-10-31T00:46:30;98894.00;;;10.20
8362;BMP180;4218;48.326;14.304;2022-10-31T00:48:55;98889.00;;;10.20
8362;BMP180;4218;48.326;14.304;2022-10-31T00:51:21;98896.00;;;10.20
8362;BMP180;4218;48.326;14.304;2022-10-31T00:53:46;98902.00;;;10.30
8362;BMP180;4218;48.326;14.304;2022-10-31T00:56:11;98901.00;;;10.30
8362;BMP180;4218;48.326;14.304;2022-10-31T00:58:37;98903.00;;;10.20
8362;BMP180;4218;48.326;14.304;2022-10-31T01:01:02;98904.00;;;10.20
8362;BMP180;4218;48.326;14.304;2022-10-31T01:03:31;98897.00;;;10.10
8362;BMP180;4218;48.326;14.304;2022-10-31T01:06:08;98897.00;;;10.10
8362;BMP180;4218;48.326;14.304;2022-10-31T01:08:35;98894.00;;;10.20
8362;BMP180;4218;48.326;14.304;2022-10-31T01:11:21;98888.00;;;10.30
8362;BMP180;4218;48.326;14.304;2022-10-31T01:13:50;98912.00;;;10.40
8362;BMP180;4218;48.326;14.304;2022-10-31T01:16:18;98901.00;;;10.20
8362;BMP180;4218;48.326;14.304;2022-10-31T01:18:44;98900.00;;;10.20
8362;BMP180;4218;48.326;14.304;2022-10-31T01:21:16;98899.00;;;10.20
8362;BMP180;4218;48.326;14.304;2022-10-31T01:23:41;98892.00;;;10.20
8362;BMP180;4218;48.326;14.304;2022-10-31T01:26:17;98895.00;;;10.30
8362;BMP180;4218;48.326;14.304;2022-10-31T01:28:50;98891.00;;;10.30
8362;BMP180;4218;48.326;14.304;2022-10-31T01:31:18;98901.00;;;10.20
8362;BMP180;4218;48.326;14.304;2022-10-31T01:33:44;98892.00;;;10.20
8362;BMP180;4218;48.326;14.304;2022-10-31T01:36:18;98899.00;;;10.20
8362;BMP180;4218;48.326;14.304;2022-10-31T01:38:45;98892.00;;;10.10
8362;BMP180;4218;48.326;14.304;2022-10-31T01:41:12;98886.00;;;10.20
8362;BMP180;4218;48.326;14.304;2022-10-31T01:43:55;98895.00;;;10.00
8362;BMP180;4218;48.326;14.304;2022-10-31T01:46:27;98890.00;;;10.00
8362;BMP180;4218;48.326;14.304;2022-10-31T01:48:55;98893.00;;;10.00
8362;BMP180;4218;48.326;14.304;2022-10-31T01:51:25;98886.00;;;10.10
8362;BMP180;4218;48.326;14.304;2022-10-31T01:53:55;98886.00;;;9.90
8362;BMP180;4218;48.326;14.304;2022-10-31T01:56:21;98883.00;;;9.90
8362;BMP180;4218;48.326;14.304;2022-10-31T01:58:47;98885.00;;;10.00
8362;BMP180;4218;48.326;14.304;2022-10-31T02:01:14;98890.00;;;9.90
8362;BMP180;4218;48.326;14.304;2022-10-31T02:03:40;98890.00;;;9.80
8362;BMP180;4218;48.326;14.304;2022-10-31T02:06:13;98893.00;;;9.70
8362;BMP180;4218;48.326;14.304;2022-10-31T02:08:43;98895.00;;;9.70
8362;BMP180;4218;48.326;14.304;2022-10-31T02:11:09;98893.00;;;9.80
8362;BMP180;4218;48.326;14.304;2022-10-31T02:13:34;98896.00;;;9.80
8362;BMP180;4218;48.326;14.304;2022-10-31T02:16:00;98887.00;;;9.70
8362;BMP180;4218;48.326;14.304;2022-10-31T02:18:29;98894.00;;;9.90
8362;BMP180;4218;48.326;14.304;2022-10-31T02:26:45;98901.00;;;9.70
8362;BMP180;4218;48.326;14.304;2022-10-31T02:34:59;98886.00;;;9.90
8362;BMP180;4218;48.326;14.304;2022-10-31T02:37:37;98889.00;;;9.80
8362;BMP180;4218;48.326;14.304;2022-10-31T02:40:23;98900.00;;;9.80
8362;BMP180;4218;48.326;14.304;2022-10-31T02:43:05;98879.00;;;9.70
8362;BMP180;4218;48.326;14.304;2022-10-31T02:45:37;98886.00;;;9.70
8362;BMP180;4218;48.326;14.304;2022-10-31T02:48:10;98887.00;;;9.70
8362;BMP180;4218;48.326;14.304;2022-10-31T02:50:43;98889.00;;;9.70
8362;BMP180;4218;48.326;14.304;2022-10-31T02:53:14;98894.00;;;9.60
8362;BMP180;4218;48.326;14.304;2022-10-31T02:55:49;98891.00;;;9.90
8362;BMP180;4218;48.326;14.304;2022-10-31T02:58:20;98891.00;;;9.90
8362;BMP180;4218;48.326;14.304;2022-10-31T03:07:19;98903.00;;;10.00
8362;BMP180;4218;48.326;14.304;2022-10-31T03:15:24;98905.00;;;10.00
8362;BMP180;4218;48.326;14.304;2022-10-31T03:17:54;98902.00;;;9.80
8362;BMP180;4218;48.326;14.304;2022-10-31T03:20:24;98896.00;;;9.80
8362;BMP180;4218;48.326;14.304;2022-10-31T03:22:54;98909.00;;;9.70
8362;BMP180;4218;48.326;14.304;2022-10-31T03:25:20;98905.00;;;9.70
8362;BMP180;4218;48.326;14.304;2022-10-31T03:27:46;98899.00;;;9.80
8362;BMP180;4218;48.326;14.304;2022-10-31T03:30:13;98898.00;;;9.80
8362;BMP180;4218;48.326;14.304;2022-10-31T03:32:53;98898.00;;;9.80
8362;BMP180;4218;48.326;14.304;2022-10-31T03:35:20;98903.00;;;9.90
8362;BMP180;4218;48.326;14.304;2022-10-31T03:37:49;98903.00;;;9.90
8362;BMP180;4218;48.326;14.304;2022-10-31T03:40:19;98905.00;;;9.80
8362;BMP180;4218;48.326;14.304;2022-10-31T03:42:52;98910.00;;;9.60
8362;BMP180;4218;48.326;14.304;2022-10-31T03:45:26;98911.00;;;9.70
8362;BMP180;4218;48.326;14.304;2022-10-31T03:47:53;98900.00;;;9.70
8362;BMP180;4218;48.326;14.304;2022-10-31T03:50:19;98912.00;;;9.70
8362;BMP180;4218;48.326;14.304;2022-10-31T04:00:53;98911.00;;;9.80
8362;BMP180;4218;48.326;14.304;2022-10-31T04:03:26;98915.00;;;9.70
8362;BMP180;4218;48.326;14.304;2022-10-31T04:05:54;98915.00;;;9.60
8362;BMP180;4218;48.326;14.304;2022-10-31T04:08:24;98911.00;;;9.60
8362;BMP180;4218;48.326;14.304;2022-10-31T04:10:52;98908.00;;;9.50
8362;BMP180;4218;48.326;14.304;2022-10-31T04:13:25;98913.00;;;9.50
8362;BMP180;4218;48.326;14.304;2022-10-31T04:15:54;98915.00;;;9.40
8362;BMP180;4218;48.326;14.304;2022-10-31T04:18:20;98919.00;;;9.50
8362;BMP180;4218;48.326;14.304;2022-10-31T04:20:46;98925.00;;;9.50
8362;BMP180;4218;48.326;14.304;2022-10-31T04:23:24;98918.00;;;9.40
8362;BMP180;4218;48.326;14.304;2022-10-31T04:25:49;98907.00;;;9.50
8362;BMP180;4218;48.326;14.304;2022-10-31T04:28:14;98918.00;;;9.50
8362;BMP180;4218;48.326;14.304;2022-10-31T04:30:40;98912.00;;;9.50
8362;BMP180;4218;48.326;14.304;2022-10-31T04:33:05;98917.00;;;9.50
8362;BMP180;4218;48.326;14.304;2022-10-31T04:35:31;98916.00;;;9.40
8362;BMP180;4218;48.326;14.304;2022-10-31T04:37:56;98920.00;;;9.30
8362;BMP180;4218;48.326;14.304;2022-10-31T04:40:21;98918.00;;;9.30
8362;BMP180;4218;48.326;14.304;2022-10-31T04:42:47;98917.00;;;9.30
8362;BMP180;4218;48.326;14.304;2022-10-31T04:45:12;98919.00;;;9.40
8362;BMP180;4218;48.326;14.304;2022-10-31T04:47:38;98915.00;;;9.50
8362;BMP180;4218;48.326;14.304;2022-10-31T04:50:03;98913.00;;;9.40
8362;BMP180;4218;48.326;14.304;2022-10-31T04:52:29;98911.00;;;9.50
8362;BMP180;4218;48.326;14.304;2022-10-31T04:54:54;98911.00;;;9.50
8362;BMP180;4218;48.326;14.304;2022-10-31T04:57:19;98913.00;;;9.40
8362;BMP180;4218;48.326;14.304;2022-10-31T04:59:44;98920.00;;;9.40
8362;BMP180;4218;48.326;14.304;2022-10-31T05:02:10;98925.00;;;9.50
8362;BMP180;4218;48.326;14.304;2022-10-31T05:04:35;98914.00;;;9.40
8362;BMP180;4218;48.326;14.304;2022-10-31T05:07:01;98920.00;;;9.30
8362;BMP180;4218;48.326;14.304;2022-10-31T05:09:26;98922.00;;;9.20
8362;BMP180;4218;48.326;14.304;2022-10-31T05:11:51;98924.00;;;9.20
8362;BMP180;4218;48.326;14.304;2022-10-31T05:14:17;98922.00;;;9.20
8362;BMP180;4218;48.326;14.304;2022-10-31T05:16:42;98927.00;;;9.10
8362;BMP180;4218;48.326;14.304;2022-10-31T05:19:07;98925.00;;;9.10
8362;BMP180;4218;48.326;14.304;2022-10-31T05:21:33;98921.00;;;9.10
8362;BMP180;4218;48.326;14.304;2022-10-31T05:23:58;98922.00;;;9.10
8362;BMP180;4218;48.326;14.304;2022-10-31T05:26:24;98912.00;;;9.10
8362;BMP180;4218;48.326;14.304;2022-10-31T05:28:49;98924.00;;;9.10
8362;BMP180;4218;48.326;14.304;2022-10-31T05:31:14;98931.00;;;9.10
8362;BMP180;4218;48.326;14.304;2022-10-31T05:33:40;98924.00;;;9.00
8362;BMP180;4218;48.326;14.304;2022-10-31T05:36:05;98920.00;;;9.10
8362;BMP180;4218;48.326;14.304;2022-10-31T05:38:31;98921.00;;;9.00
8362;BMP180;4218;48.326;14.304;2022-10-31T05:40:56;98928.00;;;9.00
8362;BMP180;4218;48.326;14.304;2022-10-31T05:43:30;98925.00;;;8.90
8362;BMP180;4218;48.326;14.304;2022-10-31T05:45:56;98921.00;;;8.90
8362;BMP180;4218;48.326;14.304;2022-10-31T05:48:22;98918.00;;;8.90
8362;BMP180;4218;48.326;14.304;2022-10-31T05:50:48;98925.00;;;9.00
8362;BMP180;4218;48.326;14.304;2022-10-31T05:53:14;98914.00;;;9.10
8362;BMP180;4218;48.326;14.304;2022-10-31T05:55:39;98906.00;;;8.90
8362;BMP180;4218;48.326;14.304;2022-10-31T05:58:08;98909.00;;;8.80
8362;BMP180;4218;48.326;14.304;2022-10-31T06:00:33;98913.00;;;8.80
8362;BMP180;4218;48.326;14.304;2022-10-31T06:03:05;98917.00;;;8.80
8362;BMP180;4218;48.326;14.304;2022-10-31T06:05:31;98915.00;;;9.00
8362;BMP180;4218;48.326;14.304;2022-10-31T06:07:57;98922.00;;;8.90
8362;BMP180;4218;48.326;14.304;2022-10-31T06:10:24;98930.00;;;8.80
8362;BMP180;4218;48.326;14.304;2022-10-31T06:12:49;98936.00;;;8.90
8362;BMP180;4218;48.326;14.304;2022-10-31T06:15:24;98937.00;;;8.90
8362;BMP180;4218;48.326;14.304;2022-10-31T06:18:08;98933.00;;;9.00
8362;BMP180;4218;48.326;14.304;2022-10-31T06:23:49;98951.00;;;8.80
8362;BMP180;4218;48.326;14.304;2022-10-31T06:29:26;98947.00;;;8.80
8362;BMP180;4218;48.326;14.304;2022-10-31T06:43:13;98963.00;;;8.90
8362;BMP180;4218;48.326;14.304;2022-10-31T06:45:51;98938.00;;;8.70
8362;BMP180;4218;48.326;14.304;2022-10-31T06:58:48;98948.00;;;8.60
8362;BMP180;4218;48.326;14.304;2022-10-31T07:01:35;98968.00;;;8.70
8362;BMP180;4218;48.326;14.304;2022-10-31T07:04:12;98968.00;;;8.80
8362;BMP180;4218;48.326;14.304;2022-10-31T07:06:58;98980.00;;;8.80
8362;BMP180;4218;48.326;14.304;2022-10-31T07:09:23;98963.00;;;8.90
8362;BMP180;4218;48.326;14.304;2022-10-31T07:11:52;98973.00;;;9.20
8362;BMP180;4218;48.326;14.304;2022-10-31T07:14:17;98971.00;;;9.10
8362;BMP180;4218;48.326;14.304;2022-10-31T07:16:42;98970.00;;;9.10
8362;BMP180;4218;48.326;14.304;2022-10-31T07:19:07;98964.00;;;9.10
8362;BMP180;4218;48.326;14.304;2022-10-31T07:21:33;98969.00;;;9.30
8362;BMP180;4218;48.326;14.304;2022-10-31T07:23:58;98967.00;;;9.30
8362;BMP180;4218;48.326;14.304;2022-10-31T07:26:24;98971.00;;;9.40
8362;BMP180;4218;48.326;14.304;2022-10-31T07:28:50;98958.00;;;9.40
8362;BMP180;4218;48.326;14.304;2022-10-31T07:31:15;98972.00;;;9.50
8362;BMP180;4218;48.326;14.304;2022-10-31T07:33:40;98968.00;;;9.40
8362;BMP180;4218;48.326;14.304;2022-10-31T07:36:06;98951.00;;;9.50
8362;BMP180;4218;48.326;14.304;2022-10-31T07:38:32;98964.00;;;9.30
8362;BMP180;4218;48.326;14.304;2022-10-31T07:40:57;98962.00;;;9.40
8362;BMP180;4218;48.326;14.304;2022-10-31T07:43:22;98955.00;;;9.40
8362;BMP180;4218;48.326;14.304;2022-10-31T07:45:52;98963.00;;;9.60
8362;BMP180;4218;48.326;14.304;2022-10-31T07:48:18;98957.00;;;9.60
8362;BMP180;4218;48.326;14.304;2022-10-31T07:50:44;98964.00;;;9.70
8362;BMP180;4218;48.326;14.304;2022-10-31T07:53:11;98965.00;;;9.80
8362;BMP180;4218;48.326;14.304;2022-10-31T07:55:37;98962.00;;;10.00
8362;BMP180;4218;48.326;14.304;2022-10-31T07:58:04;98963.00;;;9.90
8362;BMP180;4218;48.326;14.304;2022-10-31T08:00:32;98974.00;;;9.70
8362;BMP180;4218;48.326;14.304;2022-10-31T08:05:23;98959.00;;;9.90
8362;BMP180;4218;48.326;14.304;2022-10-31T08:07:48;98958.00;;;9.90
8362;BMP180;4218;48.326;14.304;2022-10-31T08:10:13;98950.00;;;9.90
8362;BMP180;4218;48.326;14.304;2022-10-31T08:12:39;98955.00;;;10.00
8362;BMP180;4218;48.326;14.304;2022-10-31T08:15:05;98944.00;;;10.20
8362;BMP180;4218;48.326;14.304;2022-10-31T08:17:30;98953.00;;;10.20
8362;BMP180;4218;48.326;14.304;2022-10-31T08:19:59;98945.00;;;10.00
8362;BMP180;4218;48.326;14.304;2022-10-31T08:22:25;98958.00;;;10.00
8362;BMP180;4218;48.326;14.304;2022-10-31T08:24:50;98947.00;;;9.80
8362;BMP180;4218;48.326;14.304;2022-10-31T08:27:15;98957.00;;;9.70
8362;BMP180;4218;48.326;14.304;2022-10-31T08:29:40;98953.00;;;9.70
8362;BMP180;4218;48.326;14.304;2022-10-31T08:32:06;98954.00;;;9.90
8362;BMP180;4218;48.326;14.304;2022-10-31T08:34:31;98948.00;;;10.00
8362;BMP180;4218;48.326;14.304;2022-10-31T08:36:56;98945.00;;;10.00
8362;BMP180;4218;48.326;14.304;2022-10-31T08:39:22;98949.00;;;10.10
8362;BMP180;4218;48.326;14.304;2022-10-31T08:41:47;98950.00;;;10.20
8362;BMP180;4218;48.326;14.304;2022-10-31T08:44:13;98948.00;;;10.00
8362;BMP180;4218;48.326;14.304;2022-10-31T08:46:38;98945.00;;;10.10
8362;BMP180;4218;48.326;14.304;2022-10-31T08:49:03;98936.00;;;10.00
8362;BMP180;4218;48.326;14.304;2022-10-31T08:51:29;98936.00;;;10.10
8362;BMP180;4218;48.326;14.304;2022-10-31T08:53:54;98930.00;;;10.10
8362;BMP180;4218;48.326;14.304;2022-10-31T08:56:20;98936.00;;;10.20
8362;BMP180;4218;48.326;14.304;2022-10-31T08:58:45;98934.00;;;10.40
8362;BMP180;4218;48.326;14.304;2022-10-31T09:01:10;98928.00;;;10.30
8362;BMP180;4218;48.326;14.304;2022-10-31T09:03:36;98923.00;;;10.20
8362;BMP180;4218;48.326;14.304;2022-10-31T09:06:02;98933.00;;;10.40
8362;BMP180;4218;48.326;14.304;2022-10-31T09:08:32;98930.00;;;10.30
8362;BMP180;4218;48.326;14.304;2022-10-31T09:10:58;98919.00;;;10.20
8362;BMP180;4218;48.326;14.304;2022-10-31T09:13:24;98931.00;;;10.40
8362;BMP180;4218;48.326;14.304;2022-10-31T09:15:50;98917.00;;;10.40
8362;BMP180;4218;48.326;14.304;2022-10-31T09:18:18;98902.00;;;10.50
8362;BMP180;4218;48.326;14.304;2022-10-31T09:20:46;98901.00;;;10.50
8362;BMP180;4218;48.326;14.304;2022-10-31T09:23:14;98910.00;;;10.50
8362;BMP180;4218;48.326;14.304;2022-10-31T09:25:40;98913.00;;;10.60
8362;BMP180;4218;48.326;14.304;2022-10-31T09:28:08;98916.00;;;10.80
8362;BMP180;4218;48.326;14.304;2022-10-31T09:30:35;98899.00;;;11.00
8362;BMP180;4218;48.326;14.304;2022-10-31T09:33:04;98910.00;;;11.10
8362;BMP180;4218;48.326;14.304;2022-10-31T09:35:30;98911.00;;;11.10
8362;BMP180;4218;48.326;14.304;2022-10-31T09:38:03;98896.00;;;11.00
8362;BMP180;4218;48.326;14.304;2022-10-31T09:40:36;98910.00;;;11.00
8362;BMP180;4218;48.326;14.304;2022-10-31T09:51:20;98900.00;;;11.40
8362;BMP180;4218;48.326;14.304;2022-10-31T09:53:51;98895.00;;;11.30
8362;BMP180;4218;48.326;14.304;2022-10-31T09:56:20;98889.00;;;11.40
8362;BMP180;4218;48.326;14.304;2022-10-31T09:58:51;98878.00;;;11.50
8362;BMP180;4218;48.326;14.304;2022-10-31T10:01:40;98891.00;;;11.10
8362;BMP180;4218;48.326;14.304;2022-10-31T10:06:49;98872.00;;;11.20
8362;BMP180;4218;48.326;14.304;2022-10-31T10:09:24;98899.00;;;11.40
8362;BMP180;4218;48.326;14.304;2022-10-31T10:17:35;98888.00;;;11.50
8362;BMP180;4218;48.326;14.304;2022-10-31T10:22:52;98869.00;;;11.80
8362;BMP180;4218;48.326;14.304;2022-10-31T10:25:24;98874.00;;;11.80
8362;BMP180;4218;48.326;14.304;2022-10-31T10:27:54;98868.00;;;11.80
8362;BMP180;4218;48.326;14.304;2022-10-31T10:32:59;98872.00;;;11.60
8362;BMP180;4218;48.326;14.304;2022-10-31T10:35:29;98865.00;;;11.70
8362;BMP180;4218;48.326;14.304;2022-10-31T10:38:00;98845.00;;;11.90
8362;BMP180;4218;48.326;14.304;2022-10-31T10:40:28;98860.00;;;11.60
8362;BMP180;4218;48.326;14.304;2022-10-31T10:45:53;98849.00;;;11.70
8362;BMP180;4218;48.326;14.304;2022-10-31T10:48:43;98851.00;;;11.70
8362;BMP180;4218;48.326;14.304;2022-10-31T10:51:20;98848.00;;;11.80
8362;BMP180;4218;48.326;14.304;2022-10-31T10:57:04;98847.00;;;12.00
8362;BMP180;4218;48.326;14.304;2022-10-31T10:59:31;98830.00;;;12.20
8362;BMP180;4218;48.326;14.304;2022-10-31T11:01:58;98826.00;;;12.30
8362;BMP180;4218;48.326;14.304;2022-10-31T11:04:28;98816.00;;;12.20
8362;BMP180;4218;48.326;14.304;2022-10-31T11:07:09;98832.00;;;12.50
8362;BMP180;4218;48.326;14.304;2022-10-31T11:09:36;98822.00;;;12.60
8362;BMP180;4218;48.326;14.304;2022-10-31T11:12:21;98823.00;;;12.60
8362;BMP180;4218;48.326;14.304;2022-10-31T11:14:51;98809.00;;;12.70
8362;BMP180;4218;48.326;14.304;2022-10-31T11:17:27;98817.00;;;12.80
8362;BMP180;4218;48.326;14.304;2022-10-31T11:20:24;98807.00;;;12.70
8362;BMP180;4218;48.326;14.304;2022-10-31T11:23:01;98803.00;;;12.50
8362;BMP180;4218;48.326;14.304;2022-10-31T11:25:26;98799.00;;;12.50
8362;BMP180;4218;48.326;14.304;2022-10-31T11:28:03;98800.00;;;12.60
8362;BMP180;4218;48.326;14.304;2022-10-31T11:30:30;98774.00;;;12.60
8362;BMP180;4218;48.326;14.304;2022-10-31T11:32:56;98791.00;;;12.70
8362;BMP180;4218;48.326;14.304;2022-10-31T11:35:23;98795.00;;;12.50
8362;BMP180;4218;48.326;14.304;2022-10-31T11:37:50;98786.00;;;12.70
8362;BMP180;4218;48.326;14.304;2022-10-31T11:40:21;98780.00;;;12.70
8362;BMP180;4218;48.326;14.304;2022-10-31T11:42:48;98771.00;;;12.70
8362;BMP180;4218;48.326;14.304;2022-10-31T11:45:27;98774.00;;;12.90
8362;BMP180;4218;48.326;14.304;2022-10-31T11:47:54;98769.00;;;13.00
8362;BMP180;4218;48.326;14.304;2022-10-31T11:50:28;98756.00;;;13.10
8362;BMP180;4218;48.326;14.304;2022-10-31T11:52:54;98751.00;;;13.00
8362;BMP180;4218;48.326;14.304;2022-10-31T11:55:36;98754.00;;;13.00
8362;BMP180;4218;48.326;14.304;2022-10-31T11:58:01;98744.00;;;13.20
8362;BMP180;4218;48.326;14.304;2022-10-31T12:05:59;98740.00;;;13.40
8362;BMP180;4218;48.326;14.304;2022-10-31T12:08:30;98733.00;;;13.30
8362;BMP180;4218;48.326;14.304;2022-10-31T12:13:37;98721.00;;;13.60
8362;BMP180;4218;48.326;14.304;2022-10-31T12:16:46;98720.00;;;13.70
8362;BMP180;4218;48.326;14.304;2022-10-31T12:22:14;98723.00;;;13.80
8362;BMP180;4218;48.326;14.304;2022-10-31T12:24:54;98715.00;;;13.80
8362;BMP180;4218;48.326;14.304;2022-10-31T12:30:46;98705.00;;;13.90
8362;BMP180;4218;48.326;14.304;2022-10-31T12:41:47;98689.00;;;14.20
8362;BMP180;4218;48.326;14.304;2022-10-31T12:47:18;98694.00;;;14.10
8362;BMP180;4218;48.326;14.304;2022-10-31T12:58:30;98680.00;;;14.40
8362;BMP180;4218;48.326;14.304;2022-10-31T13:01:19;98672.00;;;14.50
8362;BMP180;4218;48.326;14.304;2022-10-31T13:03:53;98674.00;;;14.40
8362;BMP180;4218;48.326;14.304;2022-10-31T13:06:35;98664.00;;;14.50
8362;BMP180;4218;48.326;14.304;2022-10-31T13:09:06;98665.00;;;14.60
8362;BMP180;4218;48.326;14.304;2022-10-31T13:11:42;98667.00;;;14.60
8362;BMP180;4218;48.326;14.304;2022-10-31T13:14:15;98661.00;;;14.60
8362;BMP180;4218;48.326;14.304;2022-10-31T13:16:47;98656.00;;;14.60
8362;BMP180;4218;48.326;14.304;2022-10-31T13:19:19;98656.00;;;14.60
8362;BMP180;4218;48.326;14.304;2022-10-31T13:24:31;98655.00;;;14.50
8362;BMP180;4218;48.326;14.304;2022-10-31T13:27:02;98650.00;;;14.70
8362;BMP180;4218;48.326;14.304;2022-10-31T13:29:30;98647.00;;;14.50
8362;BMP180;4218;48.326;14.304;2022-10-31T13:31:56;98648.00;;;14.60
8362;BMP180;4218;48.326;14.304;2022-10-31T13:36:58;98650.00;;;14.60
8362;BMP180;4218;48.326;14.304;2022-10-31T13:42:02;98638.00;;;14.80
8362;BMP180;4218;48.326;14.304;2022-10-31T13:44:29;98643.00;;;14.80
8362;BMP180;4218;48.326;14.304;2022-10-31T13:46:58;98642.00;;;14.80
8362;BMP180;4218;48.326;14.304;2022-10-31T13:57:28;98629.00;;;14.50
8362;BMP180;4218;48.326;14.304;2022-10-31T13:59:58;98633.00;;;14.60
8362;BMP180;4218;48.326;14.304;2022-10-31T14:02:35;98632.00;;;14.60
8362;BMP180;4218;48.326;14.304;2022-10-31T14:05:05;98627.00;;;14.60
8362;BMP180;4218;48.326;14.304;2022-10-31T14:07:32;98631.00;;;14.60
8362;BMP180;4218;48.326;14.304;2022-10-31T14:12:40;98629.00;;;14.60
8362;BMP180;4218;48.326;14.304;2022-10-31T14:20:39;98634.00;;;14.60
8362;BMP180;4218;48.326;14.304;2022-10-31T14:23:32;98622.00;;;14.60
8362;BMP180;4218;48.326;14.304;2022-10-31T14:26:29;98624.00;;;14.50
8362;BMP180;4218;48.326;14.304;2022-10-31T14:39:29;98611.00;;;14.40
8362;BMP180;4218;48.326;14.304;2022-10-31T14:48:17;98601.00;;;14.30
8362;BMP180;4218;48.326;14.304;2022-10-31T14:50:32;98599.00;;;14.30
8362;BMP180;4218;48.326;14.304;2022-10-31T14:53:04;98594.00;;;14.20
8362;BMP180;4218;48.326;14.304;2022-10-31T14:55:30;98595.00;;;14.20
8362;BMP180;4218;48.326;14.304;2022-10-31T14:58:00;98598.00;;;14.00
8362;BMP180;4218;48.326;14.304;2022-10-31T15:00:27;98588.00;;;13.90
8362;BMP180;4218;48.326;14.304;2022-10-31T15:03:03;98588.00;;;13.90
8362;BMP180;4218;48.326;14.304;2022-10-31T15:05:31;98583.00;;;13.80
8362;BMP180;4218;48.326;14.304;2022-10-31T15:07:58;98583.00;;;13.70
8362;BMP180;4218;48.326;14.304;2022-10-31T15:12:52;98581.00;;;13.40
8362;BMP180;4218;48.326;14.304;2022-10-31T15:15:26;98576.00;;;13.20
8362;BMP180;4218;48.326;14.304;2022-10-31T15:17:57;98577.00;;;13.20
8362;BMP180;4218;48.326;14.304;2022-10-31T15:20:26;98591.00;;;13.30
8362;BMP180;4218;48.326;14.304;2022-10-31T15:22:52;98576.00;;;13.30
8362;BMP180;4218;48.326;14.304;2022-10-31T15:25:24;98575.00;;;13.30
8362;BMP180;4218;48.326;14.304;2022-10-31T15:27:52;98563.00;;;13.10
8362;BMP180;4218;48.326;14.304;2022-10-31T15:30:21;98570.00;;;12.90
8362;BMP180;4218;48.326;14.304;2022-10-31T15:32:48;98569.00;;;12.90
8362;BMP180;4218;48.326;14.304;2022-10-31T15:37:45;98571.00;;;12.60
8362;BMP180;4218;48.326;14.304;2022-10-31T15:40:16;98578.00;;;12.60
8362;BMP180;4218;48.326;14.304;2022-10-31T15:42:42;98558.00;;;12.60
8362;BMP180;4218;48.326;14.304;2022-10-31T15:47:37;98571.00;;;12.40
8362;BMP180;4218;48.326;14.304;2022-10-31T15:53:41;98573.00;;;12.20
8362;BMP180;4218;48.326;14.304;2022-10-31T15:56:12;98567.00;;;12.00
8362;BMP180;4218;48.326;14.304;2022-10-31T15:58:46;98568.00;;;11.90
8362;BMP180;4218;48.326;14.304;2022-10-31T16:01:24;98568.00;;;11.80
8362;BMP180;4218;48.326;14.304;2022-10-31T16:03:59;98574.00;;;11.80
8362;BMP180;4218;48.326;14.304;2022-10-31T16:06:24;98573.00;;;11.70
8362;BMP180;4218;48.326;14.304;2022-10-31T16:08:50;98576.00;;;11.70
8362;BMP180;4218;48.326;14.304;2022-10-31T16:11:27;98582.00;;;11.60
8362;BMP180;4218;48.326;14.304;2022-10-31T16:16:50;98569.00;;;11.50
8362;BMP180;4218;48.326;14.304;2022-10-31T16:19:24;98579.00;;;11.50
8362;BMP180;4218;48.326;14.304;2022-10-31T16:22:11;98585.00;;;11.50
8362;BMP180;4218;48.326;14.304;2022-10-31T16:24:45;98585.00;;;11.50
8362;BMP180;4218;48.326;14.304;2022-10-31T16:27:20;98570.00;;;11.50
8362;BMP180;4218;48.326;14.304;2022-10-31T16:29:51;98570.00;;;11.40
8362;BMP180;4218;48.326;14.304;2022-10-31T16:32:34;98581.00;;;11.40
8362;BMP180;4218;48.326;14.304;2022-10-31T16:37:37;98576.00;;;11.20
8362;BMP180;4218;48.326;14.304;2022-10-31T16:40:13;98555.00;;;11.30
8362;BMP180;4218;48.326;14.304;2022-10-31T16:42:44;98568.00;;;11.30
8362;BMP180;4218;48.326;14.304;2022-10-31T16:45:21;98558.00;;;11.40
8362;BMP180;4218;48.326;14.304;2022-10-31T16:47:47;98566.00;;;11.50
8362;BMP180;4218;48.326;14.304;2022-10-31T16:50:16;98568.00;;;11.50
8362;BMP180;4218;48.326;14.304;2022-10-31T16:52:45;98583.00;;;11.40
8362;BMP180;4218;48.326;14.304;2022-10-31T16:55:16;98571.00;;;11.20
8362;BMP180;4218;48.326;14.304;2022-10-31T16:57:45;98576.00;;;11.00
8362;BMP180;4218;48.326;14.304;2022-10-31T17:00:29;98587.00;;;11.00
8362;BMP180;4218;48.326;14.304;2022-10-31T17:02:56;98586.00;;;10.90
8362;BMP180;4218;48.326;14.304;2022-10-31T17:05:22;98578.00;;;10.90
8362;BMP180;4218;48.326;14.304;2022-10-31T17:07:57;98580.00;;;10.90
8362;BMP180;4218;48.326;14.304;2022-10-31T17:10:23;98596.00;;;10.80
8362;BMP180;4218;48.326;14.304;2022-10-31T17:12:51;98589.00;;;10.70
8362;BMP180;4218;48.326;14.304;2022-10-31T17:15:38;98585.00;;;10.60
8362;BMP180;4218;48.326;14.304;2022-10-31T17:18:05;98600.00;;;10.60
8362;BMP180;4218;48.326;14.304;2022-10-31T17:20:31;98597.00;;;10.60
8362;BMP180;4218;48.326;14.304;2022-10-31T17:22:58;98582.00;;;10.50
8362;BMP180;4218;48.326;14.304;2022-10-31T17:25:26;98601.00;;;10.60
8362;BMP180;4218;48.326;14.304;2022-10-31T17:27:54;98600.00;;;10.90
8362;BMP180;4218;48.326;14.304;2022-10-31T17:30:21;98596.00;;;11.00
8362;BMP180;4218;48.326;14.304;2022-10-31T17:32:47;98593.00;;;11.40
8362;BMP180;4218;48.326;14.304;2022-10-31T17:35:14;98598.00;;;11.70
8362;BMP180;4218;48.326;14.304;2022-10-31T17:37:41;98595.00;;;11.70
8362;BMP180;4218;48.326;14.304;2022-10-31T17:40:08;98591.00;;;11.90